createdAt,value
2022-10-24T00:01:15.966Z,146485.34
2022-10-24T00:03:43.363Z,146475.59
2022-10-24T00:06:12.177Z,146475.59
2022-10-24T00:08:41.431Z,146434.19
2022-10-24T00:11:14.914Z,146450.00
2022-10-24T00:13:42.799Z,146440.28
2022-10-24T00:16:10.833Z,146430.53
2022-10-24T00:18:38.271Z,146346.50
2022-10-24T00:21:06.413Z,146417.13
2022-10-24T00:23:33.539Z,146347.69
2022-10-24T00:26:01.977Z,146403.69
2022-10-24T00:28:33.063Z,146381.78
2022-10-24T00:31:00.574Z,146383.03
2022-10-24T00:33:28.068Z,146376.91
2022-10-24T00:35:55.069Z,146370.84
2022-10-24T00:38:22.395Z,146370.84
2022-10-24T00:40:49.479Z,146358.63
2022-10-24T00:43:20.700Z,146350.13
2022-10-24T00:45:47.730Z,146351.34
2022-10-24T00:48:17.611Z,146329.44
2022-10-24T00:50:46.663Z,146316.03
2022-10-24T00:53:14.723Z,146322.13
2022-10-24T00:55:43.763Z,146297.78
2022-10-24T00:58:11.534Z,146255.19
2022-10-24T01:00:38.687Z,146303.84
2022-10-24T01:03:05.802Z,146307.50
2022-10-24T01:05:44.199Z,146302.66
2022-10-24T01:08:45.760Z,146303.84
2022-10-24T01:11:42.372Z,146176.06
2022-10-24T01:14:40.062Z,146266.13
2022-10-24T01:17:15.636Z,146257.59
2022-10-24T01:20:04.356Z,146241.81
2022-10-24T01:23:02.314Z,146224.75
2022-10-24T01:25:55.652Z,146207.69
2022-10-24T01:28:47.036Z,146195.56
2022-10-24T01:31:33.279Z,146219.88
2022-10-24T01:34:07.844Z,146161.47
2022-10-24T01:36:43.871Z,146210.16
2022-10-24T01:39:16.651Z,146213.81
2022-10-24T01:41:45.239Z,146215.03
2022-10-24T01:44:23.289Z,146217.44
2022-10-24T01:46:56.312Z,146197.97
2022-10-24T01:49:29.951Z,146215.03
2022-10-24T01:52:02.236Z,146217.44
2022-10-24T01:54:31.718Z,146222.28
2022-10-24T01:56:58.811Z,146219.88
2022-10-24T01:59:25.826Z,146230.81
2022-10-24T02:01:58.429Z,146166.31
2022-10-24T02:04:27.434Z,146256.41
2022-10-24T02:06:57.102Z,146249.06
2022-10-24T02:09:25.144Z,146249.06
2022-10-24T02:11:53.677Z,146229.63
2022-10-24T02:14:32.836Z,146168.78
2022-10-24T02:17:00.926Z,146171.19
2022-10-24T02:19:28.889Z,146227.22
2022-10-24T02:22:28.134Z,146205.28
2022-10-24T02:25:03.621Z,146159.06
2022-10-24T02:27:39.201Z,146059.22
2022-10-24T02:30:11.229Z,146195.56
2022-10-24T02:32:45.712Z,146219.88
2022-10-24T02:35:16.171Z,146221.09
2022-10-24T02:37:49.443Z,146222.28
2022-10-24T02:40:19.876Z,146246.66
2022-10-24T02:42:50.894Z,146251.53
2022-10-24T02:45:19.664Z,146256.41
2022-10-24T02:47:51.265Z,146256.41
2022-10-24T02:50:18.608Z,146244.22
2022-10-24T02:52:46.450Z,146200.44
2022-10-24T02:55:13.709Z,146229.63
2022-10-24T02:57:40.682Z,146290.47
2022-10-24T03:00:08.625Z,146269.78
2022-10-24T03:02:35.942Z,146278.31
2022-10-24T03:05:03.662Z,146292.91
2022-10-24T03:10:02.846Z,146269.78
2022-10-24T03:12:29.867Z,146329.44
2022-10-24T03:14:56.850Z,146331.84
2022-10-24T03:17:23.848Z,146328.22
2022-10-24T03:19:50.863Z,146326.97
2022-10-24T03:22:17.870Z,146344.03
2022-10-24T03:24:55.147Z,146269.78
2022-10-24T03:27:22.922Z,146339.16
2022-10-24T03:29:49.943Z,146347.69
2022-10-24T03:32:16.986Z,146370.84
2022-10-24T03:34:44.221Z,146295.31
2022-10-24T03:37:11.373Z,146351.34
2022-10-24T03:39:38.469Z,146395.16
2022-10-24T03:42:05.510Z,146387.88
2022-10-24T03:44:32.500Z,146400.03
2022-10-24T03:46:59.485Z,146391.56
2022-10-24T03:49:26.514Z,146372.03
2022-10-24T03:51:53.532Z,146395.16
2022-10-24T03:54:20.538Z,146414.72
2022-10-24T03:56:49.245Z,146387.88
2022-10-24T03:59:16.314Z,146361.09
2022-10-24T04:01:43.443Z,146380.56
2022-10-24T04:04:10.490Z,146404.91
2022-10-24T04:06:37.563Z,146439.06
2022-10-24T04:09:05.036Z,146461.00
2022-10-24T04:11:32.095Z,146435.41
2022-10-24T04:16:34.714Z,146482.94
2022-10-24T04:19:01.947Z,146475.59
2022-10-24T04:21:29.343Z,146468.28
2022-10-24T04:23:56.987Z,146475.59
2022-10-24T04:26:24.753Z,146485.34
2022-10-24T04:28:51.740Z,146490.22
2022-10-24T04:31:22.478Z,146426.88
2022-10-24T04:33:51.014Z,146448.81
2022-10-24T04:36:18.235Z,146435.41
2022-10-24T04:38:45.246Z,146518.22
2022-10-24T04:41:12.785Z,146534.09
2022-10-24T04:43:40.679Z,146473.16
2022-10-24T04:46:08.062Z,146562.09
2022-10-24T04:48:35.144Z,146576.69
2022-10-24T04:51:02.254Z,146479.28
2022-10-24T04:53:30.135Z,146582.78
2022-10-24T04:55:57.114Z,146581.56
2022-10-24T04:58:24.329Z,146566.97
2022-10-24T05:00:51.378Z,146570.63
2022-10-24T05:03:19.572Z,146565.75
2022-10-24T05:05:47.361Z,146538.94
2022-10-24T05:08:15.719Z,146594.97
2022-10-24T05:10:42.828Z,146590.09
2022-10-24T05:13:10.018Z,146582.78
2022-10-24T05:15:37.441Z,146634.00
2022-10-24T05:18:04.758Z,146619.34
2022-10-24T05:20:31.824Z,146619.34
2022-10-24T05:22:58.883Z,146616.91
2022-10-24T05:25:25.859Z,146558.44
2022-10-24T05:27:53.742Z,146518.22
2022-10-24T05:30:21.022Z,146607.19
2022-10-24T05:32:48.305Z,146604.72
2022-10-24T05:35:15.438Z,146604.72
2022-10-24T05:37:43.948Z,146621.78
2022-10-24T05:40:12.682Z,146629.13
2022-10-24T05:42:40.233Z,146631.53
2022-10-24T05:45:09.421Z,146548.69
2022-10-24T05:47:37.122Z,146651.00
2022-10-24T05:50:05.805Z,146664.41
2022-10-24T05:52:36.190Z,146629.13
2022-10-24T05:55:08.262Z,146655.88
2022-10-24T05:57:37.764Z,146714.44
2022-10-24T06:00:11.339Z,146733.94
2022-10-24T06:02:42.444Z,146760.75
2022-10-24T06:05:10.292Z,146675.41
2022-10-24T06:07:37.523Z,146713.22
2022-10-24T06:10:06.776Z,146782.69
2022-10-24T06:12:36.022Z,146796.09
2022-10-24T06:15:06.872Z,146808.31
2022-10-24T06:17:34.133Z,146799.78
2022-10-24T06:20:01.166Z,146826.59
2022-10-24T06:22:29.661Z,146746.13
2022-10-24T06:24:57.039Z,146772.94
2022-10-24T06:27:24.373Z,146743.72
2022-10-24T06:29:51.446Z,146797.31
2022-10-24T06:32:18.774Z,146799.78
2022-10-24T06:34:45.909Z,146819.25
2022-10-24T06:37:12.950Z,146818.06
2022-10-24T06:39:39.979Z,146829.00
2022-10-24T06:42:06.980Z,146836.34
2022-10-24T06:44:34.122Z,146852.16
2022-10-24T06:47:01.092Z,146870.47
2022-10-24T06:49:28.201Z,146858.31
2022-10-24T06:51:55.178Z,146893.63
2022-10-24T06:54:24.183Z,146909.50
2022-10-24T06:56:53.513Z,146915.59
2022-10-24T06:59:20.534Z,146898.50
2022-10-24T07:01:47.683Z,146886.34
2022-10-24T07:04:14.840Z,146890.00
2022-10-24T07:06:41.945Z,146866.84
2022-10-24T07:09:14.371Z,146931.47
2022-10-24T07:11:43.717Z,146936.34
2022-10-24T07:14:11.442Z,146948.50
2022-10-24T07:16:39.034Z,146957.03
2022-10-24T07:19:06.787Z,146950.97
2022-10-24T07:21:34.192Z,146975.34
2022-10-24T07:24:01.636Z,146985.09
2022-10-24T07:26:29.704Z,147002.22
2022-10-24T07:29:04.141Z,146981.47
2022-10-24T07:31:34.226Z,147015.66
2022-10-24T07:34:03.602Z,147002.22
2022-10-24T07:36:30.772Z,147068.06
2022-10-24T07:38:59.061Z,147021.72
2022-10-24T07:41:28.050Z,147125.44
2022-10-24T07:43:57.259Z,147131.53
2022-10-24T07:46:24.538Z,147048.56
2022-10-24T07:48:52.697Z,147129.09
2022-10-24T07:51:20.357Z,147143.75
2022-10-24T07:53:48.108Z,147158.38
2022-10-24T07:56:16.838Z,147171.78
2022-10-24T07:58:44.814Z,147151.06
2022-10-24T08:01:14.887Z,147138.84
2022-10-24T08:03:41.937Z,147170.59
2022-10-24T08:06:12.458Z,147131.53
2022-10-24T08:08:40.474Z,147165.72
2022-10-24T08:11:16.236Z,147131.53
2022-10-24T08:13:44.094Z,147136.41
2022-10-24T08:16:14.101Z,147136.41
2022-10-24T08:18:41.214Z,147099.78
2022-10-24T08:21:11.558Z,147069.31
2022-10-24T08:23:40.840Z,146987.59
2022-10-24T08:26:10.229Z,147107.13
2022-10-24T08:28:37.266Z,147131.53
2022-10-24T08:31:10.833Z,147133.97
2022-10-24T08:33:37.965Z,147063.19
2022-10-24T08:36:13.301Z,147155.97
2022-10-24T08:38:40.408Z,147141.28
2022-10-24T08:41:15.467Z,147126.66
2022-10-24T08:43:42.956Z,147153.50
2022-10-24T08:46:25.046Z,147159.56
2022-10-24T08:49:33.776Z,147143.75
2022-10-24T08:52:18.223Z,147226.72
2022-10-24T08:54:46.439Z,147146.19
2022-10-24T08:57:26.208Z,147248.75
2022-10-24T08:59:57.593Z,147280.47
2022-10-24T09:02:32.389Z,147260.97
2022-10-24T09:05:04.718Z,147234.06
2022-10-24T09:07:31.781Z,147268.25
2022-10-24T09:10:13.626Z,147204.72
2022-10-24T09:12:40.675Z,147251.16
2022-10-24T09:15:16.151Z,147236.47
2022-10-24T09:17:44.104Z,147271.94
2022-10-24T09:20:33.263Z,147319.50
2022-10-24T09:23:05.554Z,147304.88
2022-10-24T09:25:36.203Z,147280.47
2022-10-24T09:28:05.721Z,147306.09
2022-10-24T09:30:34.266Z,147342.72
2022-10-24T09:33:13.138Z,147341.50
2022-10-24T09:35:42.589Z,147417.22
2022-10-24T09:38:37.189Z,147395.22
2022-10-24T09:41:04.177Z,147351.25
2022-10-24T09:43:43.634Z,147387.88
2022-10-24T09:46:20.316Z,147430.66
2022-10-24T09:49:12.341Z,147431.88
2022-10-24T09:52:16.471Z,147491.75
2022-10-24T09:54:44.672Z,147500.28
2022-10-24T09:57:11.646Z,147502.72
2022-10-24T09:59:44.065Z,147500.28
2022-10-24T10:02:12.685Z,147448.97
2022-10-24T10:04:41.600Z,147469.69
2022-10-24T10:07:14.992Z,147466.03
2022-10-24T10:09:57.796Z,147458.72
2022-10-24T10:12:24.662Z,147522.28
2022-10-24T10:14:52.172Z,147640.78
2022-10-24T10:17:25.287Z,147776.44
2022-10-24T10:19:54.476Z,147744.66
2022-10-24T10:22:31.728Z,147668.88
2022-10-24T10:25:00.290Z,147692.09
2022-10-24T10:27:41.737Z,147649.31
2022-10-24T10:30:11.626Z,147659.13
2022-10-24T10:33:06.565Z,147681.06
2022-10-24T10:35:46.984Z,147655.44
2022-10-24T10:38:29.316Z,147600.47
2022-10-24T10:41:11.067Z,147595.59
2022-10-24T10:44:00.750Z,147627.34
2022-10-24T10:46:46.263Z,147627.34
2022-10-24T10:49:25.334Z,147627.34
2022-10-24T10:52:06.170Z,147715.31
2022-10-24T10:55:02.993Z,147761.78
2022-10-24T10:57:33.611Z,147766.69
2022-10-24T11:00:12.664Z,147719.03
2022-10-24T11:03:07.668Z,147695.78
2022-10-24T11:06:10.722Z,147517.41
2022-10-24T11:09:11.348Z,147600.47
2022-10-24T11:11:51.111Z,147607.75
2022-10-24T11:14:29.578Z,147639.53
2022-10-24T11:17:02.875Z,147769.16
2022-10-24T11:19:32.503Z,147798.47
2022-10-24T11:22:04.907Z,147831.44
2022-10-24T11:24:38.989Z,147858.34
2022-10-24T11:27:16.254Z,147809.44
2022-10-24T11:29:53.984Z,147820.47
2022-10-24T11:32:25.676Z,147858.34
2022-10-24T11:35:18.899Z,147781.34
2022-10-24T11:37:50.610Z,147668.88
2022-10-24T11:40:21.838Z,147676.19
2022-10-24T11:42:58.171Z,147739.78
2022-10-24T11:45:32.651Z,147730.00
2022-10-24T11:48:23.984Z,147629.75
2022-10-24T11:50:57.280Z,147683.53
2022-10-24T11:53:33.333Z,147668.88
2022-10-24T11:56:15.247Z,147668.88
2022-10-24T11:58:57.383Z,147705.53
2022-10-24T12:01:55.443Z,147794.78
2022-10-24T12:05:07.908Z,147701.88
2022-10-24T12:07:41.106Z,147688.44
2022-10-24T12:10:42.133Z,147710.44
2022-10-24T12:13:47.685Z,147710.44
2022-10-24T12:16:32.887Z,147659.13
2022-10-24T12:19:04.738Z,147577.25
2022-10-24T12:21:43.941Z,147618.78
2022-10-24T12:24:36.284Z,147695.78
2022-10-24T12:27:06.868Z,147678.66
2022-10-24T12:29:36.634Z,147598.00
2022-10-24T12:32:24.222Z,147683.53
2022-10-24T12:35:29.029Z,147605.34
2022-10-24T12:37:49.822Z,147617.53
2022-10-24T12:40:47.709Z,147573.59
2022-10-24T12:43:29.961Z,147593.13
2022-10-24T12:46:01.442Z,147610.22
2022-10-24T12:48:30.695Z,147640.78
2022-10-24T12:51:02.454Z,147673.78
2022-10-24T12:53:31.669Z,147671.31
2022-10-24T12:55:58.612Z,147712.84
2022-10-24T12:58:31.698Z,147732.47
2022-10-24T13:01:07.922Z,147683.53
2022-10-24T13:03:50.308Z,147696.97
2022-10-24T13:06:35.841Z,147720.25
2022-10-24T13:09:32.134Z,147588.22
2022-10-24T13:12:05.309Z,147634.66
2022-10-24T13:14:55.715Z,147599.22
2022-10-24T13:17:59.105Z,147639.53
2022-10-24T13:20:29.115Z,147615.13
2022-10-24T13:23:06.264Z,147624.88
2022-10-24T13:25:39.023Z,147671.31
2022-10-24T13:28:24.251Z,147676.19
2022-10-24T13:31:00.216Z,147678.66
2022-10-24T13:33:33.210Z,147727.53
2022-10-24T13:36:09.038Z,147703.06
2022-10-24T13:38:49.207Z,147725.13
2022-10-24T13:41:35.999Z,147665.22
2022-10-24T13:44:14.356Z,147650.56
2022-10-24T13:47:14.451Z,147595.59
2022-10-24T13:49:59.105Z,147620.00
2022-10-24T13:52:31.004Z,147637.13
2022-10-24T13:55:02.414Z,147617.53
2022-10-24T13:57:35.826Z,147600.47
2022-10-24T14:00:28.509Z,147644.41
2022-10-24T14:02:56.434Z,147617.53
2022-10-24T14:05:27.688Z,147644.41
2022-10-24T14:07:54.799Z,147483.13
2022-10-24T14:10:21.982Z,147502.72
2022-10-24T14:12:52.103Z,147535.72
2022-10-24T14:15:22.484Z,147585.81
2022-10-24T14:18:14.249Z,147555.25
2022-10-24T14:20:42.294Z,147599.22
2022-10-24T14:23:23.695Z,147587.03
2022-10-24T14:26:00.093Z,147595.59
2022-10-24T14:28:37.099Z,147502.72
2022-10-24T14:31:07.010Z,147527.16
2022-10-24T14:33:50.291Z,147437.94
2022-10-24T14:36:21.054Z,147478.25
2022-10-24T14:38:50.398Z,147390.34
2022-10-24T14:41:18.795Z,147447.72
2022-10-24T14:43:46.308Z,147478.25
2022-10-24T14:46:13.253Z,147461.16
2022-10-24T14:48:46.873Z,147444.09
2022-10-24T14:51:39.113Z,147456.28
2022-10-24T14:54:18.838Z,147446.50
2022-10-24T14:56:46.350Z,147378.13
2022-10-24T14:59:43.662Z,147347.63
2022-10-24T15:02:25.681Z,147463.63
2022-10-24T15:05:12.651Z,147431.88
2022-10-24T15:07:52.385Z,147402.56
2022-10-24T15:10:42.790Z,147385.47
2022-10-24T15:13:16.699Z,147367.16
2022-10-24T15:15:43.684Z,147359.81
2022-10-24T15:18:27.648Z,147359.81
2022-10-24T15:21:01.318Z,147285.34
2022-10-24T15:23:31.767Z,147324.41
2022-10-24T15:26:11.340Z,147343.97
2022-10-24T15:28:48.161Z,147258.50
2022-10-24T15:31:18.330Z,147341.50
2022-10-24T15:33:46.086Z,147329.31
2022-10-24T15:36:34.847Z,147271.94
2022-10-24T15:39:11.374Z,147317.09
2022-10-24T15:41:39.282Z,147318.31
2022-10-24T15:44:15.002Z,147306.09
2022-10-24T15:46:42.013Z,147292.69
2022-10-24T15:49:09.046Z,147309.75
2022-10-24T15:51:38.110Z,147304.88
2022-10-24T15:54:05.629Z,147231.59
2022-10-24T15:56:32.911Z,147284.16
2022-10-24T15:58:59.967Z,147282.88
2022-10-24T16:01:31.269Z,147275.59
2022-10-24T16:03:59.194Z,147286.56
2022-10-24T16:06:27.522Z,147285.34
2022-10-24T16:08:55.879Z,147249.94
2022-10-24T16:11:23.233Z,147253.63
2022-10-24T16:13:51.134Z,147241.34
2022-10-24T16:16:18.188Z,147185.22
2022-10-24T16:18:45.273Z,147245.03
2022-10-24T16:21:20.985Z,147216.97
2022-10-24T16:23:48.670Z,147204.72
2022-10-24T16:26:16.322Z,147190.09
2022-10-24T16:28:43.394Z,147169.38
2022-10-24T16:31:15.285Z,147130.31
2022-10-24T16:33:42.405Z,147094.91
2022-10-24T16:36:09.441Z,147092.50
2022-10-24T16:38:36.506Z,147108.34
2022-10-24T16:41:03.759Z,147076.63
2022-10-24T16:43:30.783Z,147133.97
2022-10-24T16:46:00.447Z,147129.09
2022-10-24T16:48:28.411Z,147133.97
2022-10-24T16:50:56.608Z,147076.63
2022-10-24T16:53:24.084Z,147124.22
2022-10-24T16:55:54.634Z,147131.53
2022-10-24T16:58:22.701Z,147122.97
2022-10-24T17:00:49.930Z,147077.88
2022-10-24T17:03:17.195Z,147141.28
2022-10-24T17:08:13.705Z,147120.56
2022-10-24T17:10:40.711Z,147116.88
2022-10-24T17:13:07.756Z,147124.22
2022-10-24T17:15:34.839Z,147124.22
2022-10-24T17:18:01.869Z,147126.66
2022-10-24T17:20:28.983Z,147110.81
2022-10-24T17:22:56.317Z,147094.91
2022-10-24T17:25:25.549Z,147124.22
2022-10-24T17:27:53.748Z,147126.66
2022-10-24T17:30:27.418Z,147114.47
2022-10-24T17:32:54.522Z,147126.66
2022-10-24T17:35:23.736Z,147070.53
2022-10-24T17:38:28.490Z,147108.34
2022-10-24T17:41:00.303Z,147112.00
2022-10-24T17:43:28.241Z,147116.88
2022-10-24T17:45:57.089Z,147114.47
2022-10-24T17:48:25.117Z,147104.66
2022-10-24T17:50:56.336Z,147077.88
2022-10-24T17:53:23.423Z,147046.16
2022-10-24T17:55:50.453Z,146960.72
2022-10-24T17:58:17.470Z,147029.06
2022-10-24T18:00:44.854Z,147046.16
2022-10-24T18:03:12.653Z,147048.56
2022-10-24T18:05:39.997Z,146971.66
2022-10-24T18:08:08.706Z,147038.81
2022-10-24T18:10:40.358Z,147044.91
2022-10-24T18:13:08.094Z,147033.94
2022-10-24T18:15:36.316Z,147057.13
2022-10-24T18:18:03.868Z,147065.66
2022-10-24T18:20:32.051Z,147031.47
2022-10-24T18:22:59.772Z,147031.47
2022-10-24T18:25:27.578Z,147027.84
2022-10-24T18:27:56.290Z,147029.06
2022-10-24T18:30:23.429Z,146983.88
2022-10-24T18:32:50.623Z,147001.00
2022-10-24T18:35:17.909Z,146999.81
2022-10-24T18:37:45.068Z,146990.00
2022-10-24T18:40:12.778Z,146996.13
2022-10-24T18:42:39.736Z,146990.00
2022-10-24T18:45:11.078Z,146987.59
2022-10-24T18:47:38.561Z,146980.22
2022-10-24T18:50:06.125Z,146948.50
2022-10-24T18:52:54.289Z,146997.34
2022-10-24T18:55:23.991Z,147020.50
2022-10-24T18:57:51.576Z,146980.22
2022-10-24T19:00:21.531Z,147043.69
2022-10-24T19:02:52.467Z,147014.44
2022-10-24T19:05:21.872Z,147027.84
2022-10-24T19:07:49.962Z,146955.84
2022-10-24T19:10:27.331Z,147024.19
2022-10-24T19:12:54.559Z,146975.34
2022-10-24T19:15:22.632Z,147029.06
2022-10-24T19:17:51.129Z,147016.84
2022-10-24T19:20:21.772Z,146999.81
2022-10-24T19:22:49.677Z,146997.34
2022-10-24T19:25:17.468Z,146992.47
2022-10-24T19:27:44.866Z,146992.47
2022-10-24T19:30:12.853Z,147007.09
2022-10-24T19:32:39.971Z,147024.19
2022-10-24T19:35:07.273Z,147029.06
2022-10-24T19:37:34.327Z,146976.59
2022-10-24T19:40:01.322Z,147005.88
2022-10-24T19:42:28.475Z,146950.97
2022-10-24T19:44:56.473Z,147021.72
2022-10-24T19:47:23.524Z,147029.06
2022-10-24T19:49:50.577Z,147024.19
2022-10-24T19:52:17.806Z,146987.59
2022-10-24T19:54:45.049Z,146974.13
2022-10-24T19:57:12.365Z,146905.84
2022-10-24T19:59:39.413Z,146870.47
2022-10-24T20:02:06.518Z,146882.66
2022-10-24T20:04:33.553Z,146882.66
2022-10-24T20:07:00.582Z,146904.63
2022-10-24T20:09:27.563Z,146902.16
2022-10-24T20:11:54.559Z,146858.31
2022-10-24T20:14:24.400Z,146872.91
2022-10-24T20:16:51.468Z,146882.66
2022-10-24T20:19:18.731Z,146843.63
2022-10-24T20:21:45.730Z,146855.84
2022-10-24T20:24:13.151Z,146811.97
2022-10-24T20:26:40.190Z,146792.44
2022-10-24T20:29:07.326Z,146799.78
2022-10-24T20:31:38.246Z,146799.78
2022-10-24T20:34:13.801Z,146810.72
2022-10-24T20:36:44.408Z,146780.28
2022-10-24T20:39:13.447Z,146726.63
2022-10-24T20:41:40.569Z,146765.63
2022-10-24T20:44:08.153Z,146765.63
2022-10-24T20:46:36.400Z,146743.72
2022-10-24T20:49:04.157Z,146760.75
2022-10-24T20:51:31.475Z,146760.75
2022-10-24T20:53:58.631Z,146718.09
2022-10-24T20:56:26.598Z,146782.69
2022-10-24T20:58:55.320Z,146794.91
2022-10-24T21:01:24.793Z,146816.84
2022-10-24T21:03:52.769Z,146733.94
2022-10-24T21:06:28.529Z,146794.91
2022-10-24T21:08:58.396Z,146802.19
2022-10-24T21:11:28.252Z,146760.75
2022-10-24T21:14:01.602Z,146748.59
2022-10-24T21:16:29.461Z,146760.75
2022-10-24T21:18:57.585Z,146769.28
2022-10-24T21:21:25.534Z,146719.31
2022-10-24T21:23:54.794Z,146770.50
2022-10-24T21:26:22.672Z,146780.28
2022-10-24T21:28:54.007Z,146786.34
2022-10-24T21:31:26.546Z,146762.00
2022-10-24T21:33:53.683Z,146790.03
2022-10-24T21:36:22.878Z,146787.56
2022-10-24T21:38:56.237Z,146772.94
2022-10-24T21:41:24.422Z,146754.66
2022-10-24T21:43:52.059Z,146713.22
2022-10-24T21:46:31.561Z,146736.38
2022-10-24T21:48:59.111Z,146729.06
2022-10-24T21:51:28.754Z,146733.94
2022-10-24T21:54:01.526Z,146741.25
2022-10-24T21:56:31.198Z,146719.31
2022-10-24T21:59:01.061Z,146712.03
2022-10-24T22:01:34.163Z,146698.56
2022-10-24T22:04:01.965Z,146698.56
2022-10-24T22:06:30.978Z,146712.03
2022-10-24T22:08:58.362Z,146716.91
2022-10-24T22:11:30.728Z,146729.06
2022-10-24T22:13:58.384Z,146718.09
2022-10-24T22:16:28.722Z,146722.97
2022-10-24T22:18:58.751Z,146715.63
2022-10-24T22:21:30.594Z,146730.31
2022-10-24T22:24:04.933Z,146730.31
2022-10-24T22:26:32.074Z,146690.03
2022-10-24T22:28:59.250Z,146709.50
2022-10-24T22:31:27.809Z,146687.56
2022-10-24T22:33:55.976Z,146698.56
2022-10-24T22:36:47.172Z,146685.16
2022-10-24T22:39:19.699Z,146681.50
2022-10-24T22:41:47.612Z,146697.31
2022-10-24T22:44:17.112Z,146681.50
2022-10-24T22:47:10.355Z,146694.91
2022-10-24T22:49:49.576Z,146677.81
2022-10-24T22:52:16.943Z,146670.53
2022-10-24T22:54:44.391Z,146668.09
2022-10-24T22:57:11.681Z,146615.72
2022-10-24T22:59:38.896Z,146666.88
2022-10-24T23:02:11.892Z,146671.75
2022-10-24T23:04:45.341Z,146674.16
2022-10-24T23:07:27.493Z,146644.94
2022-10-24T23:09:54.974Z,146686.38
2022-10-24T23:12:22.911Z,146694.91
2022-10-24T23:14:51.439Z,146694.91
2022-10-24T23:17:30.030Z,146679.03
2022-10-24T23:19:57.654Z,146683.94
2022-10-24T23:22:27.149Z,146680.28
2022-10-24T23:24:57.343Z,146688.81
2022-10-24T23:27:41.268Z,146702.22
2022-10-24T23:30:20.968Z,146685.16
2022-10-24T23:32:50.289Z,146683.94
2022-10-24T23:35:19.516Z,146671.75
2022-10-24T23:37:52.288Z,146676.63
2022-10-24T23:40:34.246Z,146683.94
2022-10-24T23:43:03.902Z,146660.75
2022-10-24T23:45:49.420Z,146675.41
2022-10-24T23:48:16.378Z,146704.66
2022-10-24T23:50:43.338Z,146699.78
2022-10-24T23:53:48.792Z,146698.56
2022-10-24T23:56:21.009Z,146699.78
2022-10-24T23:58:48.570Z,146714.44
